sensor_id;sensor_type;location;lat;lon;timestamp;P1;durP1;ratioP1;P2;durP2;ratioP2
81306;SDS011;70775;50.846;3.224;2023-07-31T00:02:19;16.88;;;5.18;;
81306;SDS011;70775;50.846;3.224;2023-07-31T00:04:45;16.23;;;5.45;;
81306;SDS011;70775;50.846;3.224;2023-07-31T00:07:10;13.32;;;4.47;;
81306;SDS011;70775;50.846;3.224;2023-07-31T00:09:37;17.25;;;5.20;;
81306;SDS011;70775;50.846;3.224;2023-07-31T00:12:03;14.07;;;5.43;;
81306;SDS011;70775;50.846;3.224;2023-07-31T00:14:29;19.88;;;5.80;;
81306;SDS011;70775;50.846;3.224;2023-07-31T00:16:54;12.85;;;5.55;;
81306;SDS011;70775;50.846;3.224;2023-07-31T00:19:20;18.80;;;5.30;;
81306;SDS011;70775;50.846;3.224;2023-07-31T00:21:46;13.70;;;4.78;;
81306;SDS011;70775;50.846;3.224;2023-07-31T00:24:13;11.00;;;4.05;;
81306;SDS011;70775;50.846;3.224;2023-07-31T00:26:39;14.90;;;5.25;;
81306;SDS011;70775;50.846;3.224;2023-07-31T00:29:04;15.18;;;5.03;;
81306;SDS011;70775;50.846;3.224;2023-07-31T00:31:30;13.65;;;4.40;;
81306;SDS011;70775;50.846;3.224;2023-07-31T00:33:56;12.35;;;4.55;;
81306;SDS011;70775;50.846;3.224;2023-07-31T00:36:21;14.02;;;4.20;;
81306;SDS011;70775;50.846;3.224;2023-07-31T00:38:47;14.07;;;5.35;;
81306;SDS011;70775;50.846;3.224;2023-07-31T00:41:13;12.43;;;5.07;;
81306;SDS011;70775;50.846;3.224;2023-07-31T00:43:38;13.80;;;4.60;;
81306;SDS011;70775;50.846;3.224;2023-07-31T00:46:06;16.10;;;5.05;;
81306;SDS011;70775;50.846;3.224;2023-07-31T00:48:32;17.17;;;5.18;;
81306;SDS011;70775;50.846;3.224;2023-07-31T00:51:00;12.43;;;5.00;;
81306;SDS011;70775;50.846;3.224;2023-07-31T00:53:26;17.80;;;4.70;;
81306;SDS011;70775;50.846;3.224;2023-07-31T00:55:52;14.93;;;4.80;;
81306;SDS011;70775;50.846;3.224;2023-07-31T00:58:18;18.15;;;5.05;;
81306;SDS011;70775;50.846;3.224;2023-07-31T01:00:44;10.70;;;4.22;;
81306;SDS011;70775;50.846;3.224;2023-07-31T01:03:10;16.75;;;5.18;;
81306;SDS011;70775;50.846;3.224;2023-07-31T01:05:39;14.25;;;4.75;;
81306;SDS011;70775;50.846;3.224;2023-07-31T01:11:04;13.00;;;4.72;;
81306;SDS011;70775;50.846;3.224;2023-07-31T01:13:39;16.20;;;5.13;;
81306;SDS011;70775;50.846;3.224;2023-07-31T01:16:05;11.63;;;4.57;;
81306;SDS011;70775;50.846;3.224;2023-07-31T01:18:30;14.68;;;4.72;;
81306;SDS011;70775;50.846;3.224;2023-07-31T01:21:00;10.52;;;4.38;;
81306;SDS011;70775;50.846;3.224;2023-07-31T01:23:46;16.15;;;4.25;;
81306;SDS011;70775;50.846;3.224;2023-07-31T01:26:30;10.73;;;4.10;;
81306;SDS011;70775;50.846;3.224;2023-07-31T01:29:01;10.20;;;3.78;;
81306;SDS011;70775;50.846;3.224;2023-07-31T01:31:33;17.52;;;5.20;;
81306;SDS011;70775;50.846;3.224;2023-07-31T01:34:01;12.95;;;4.53;;
81306;SDS011;70775;50.846;3.224;2023-07-31T01:36:27;14.40;;;5.28;;
81306;SDS011;70775;50.846;3.224;2023-07-31T01:39:04;16.67;;;5.40;;
81306;SDS011;70775;50.846;3.224;2023-07-31T01:41:30;11.98;;;4.45;;
81306;SDS011;70775;50.846;3.224;2023-07-31T01:43:55;15.13;;;4.53;;
81306;SDS011;70775;50.846;3.224;2023-07-31T01:46:21;12.85;;;5.00;;
81306;SDS011;70775;50.846;3.224;2023-07-31T01:48:46;11.07;;;4.40;;
81306;SDS011;70775;50.846;3.224;2023-07-31T01:51:12;10.50;;;3.75;;
81306;SDS011;70775;50.846;3.224;2023-07-31T01:53:39;14.15;;;4.97;;
81306;SDS011;70775;50.846;3.224;2023-07-31T01:56:04;11.77;;;4.95;;
81306;SDS011;70775;50.846;3.224;2023-07-31T01:58:30;13.70;;;4.85;;
81306;SDS011;70775;50.846;3.224;2023-07-31T02:00:55;16.83;;;4.80;;
81306;SDS011;70775;50.846;3.224;2023-07-31T02:03:21;12.88;;;4.93;;
81306;SDS011;70775;50.846;3.224;2023-07-31T02:05:47;13.10;;;5.00;;
81306;SDS011;70775;50.846;3.224;2023-07-31T02:08:14;17.50;;;5.35;;
81306;SDS011;70775;50.846;3.224;2023-07-31T02:10:40;12.25;;;5.05;;
81306;SDS011;70775;50.846;3.224;2023-07-31T02:13:06;13.52;;;4.57;;
81306;SDS011;70775;50.846;3.224;2023-07-31T02:15:32;15.02;;;5.28;;
81306;SDS011;70775;50.846;3.224;2023-07-31T02:17:58;17.40;;;6.07;;
81306;SDS011;70775;50.846;3.224;2023-07-31T02:20:23;19.25;;;5.97;;
81306;SDS011;70775;50.846;3.224;2023-07-31T02:22:49;14.45;;;4.68;;
81306;SDS011;70775;50.846;3.224;2023-07-31T02:25:15;11.77;;;4.30;;
81306;SDS011;70775;50.846;3.224;2023-07-31T02:27:42;13.25;;;4.93;;
81306;SDS011;70775;50.846;3.224;2023-07-31T02:30:08;14.48;;;5.55;;
81306;SDS011;70775;50.846;3.224;2023-07-31T02:32:34;12.60;;;4.72;;
81306;SDS011;70775;50.846;3.224;2023-07-31T02:35:00;14.48;;;5.57;;
81306;SDS011;70775;50.846;3.224;2023-07-31T02:37:25;13.85;;;4.95;;
81306;SDS011;70775;50.846;3.224;2023-07-31T02:39:53;12.23;;;5.10;;
81306;SDS011;70775;50.846;3.224;2023-07-31T02:42:19;13.80;;;5.15;;
81306;SDS011;70775;50.846;3.224;2023-07-31T02:44:44;12.43;;;5.43;;
81306;SDS011;70775;50.846;3.224;2023-07-31T02:47:10;14.77;;;5.00;;
81306;SDS011;70775;50.846;3.224;2023-07-31T02:49:36;14.43;;;5.28;;
81306;SDS011;70775;50.846;3.224;2023-07-31T02:52:01;13.57;;;5.35;;
81306;SDS011;70775;50.846;3.224;2023-07-31T02:54:27;14.88;;;5.35;;
81306;SDS011;70775;50.846;3.224;2023-07-31T02:56:52;17.67;;;6.45;;
81306;SDS011;70775;50.846;3.224;2023-07-31T02:59:18;15.50;;;5.70;;
81306;SDS011;70775;50.846;3.224;2023-07-31T03:01:44;15.38;;;5.80;;
81306;SDS011;70775;50.846;3.224;2023-07-31T03:04:12;10.80;;;4.85;;
81306;SDS011;70775;50.846;3.224;2023-07-31T03:06:38;20.15;;;5.97;;
81306;SDS011;70775;50.846;3.224;2023-07-31T03:09:03;15.85;;;5.35;;
81306;SDS011;70775;50.846;3.224;2023-07-31T03:11:30;14.30;;;5.05;;
81306;SDS011;70775;50.846;3.224;2023-07-31T03:13:56;16.77;;;5.72;;
81306;SDS011;70775;50.846;3.224;2023-07-31T03:16:21;12.52;;;4.97;;
81306;SDS011;70775;50.846;3.224;2023-07-31T03:18:47;13.77;;;5.63;;
81306;SDS011;70775;50.846;3.224;2023-07-31T03:21:14;14.93;;;6.05;;
81306;SDS011;70775;50.846;3.224;2023-07-31T03:23:40;18.58;;;6.50;;
81306;SDS011;70775;50.846;3.224;2023-07-31T03:26:08;16.83;;;6.38;;
81306;SDS011;70775;50.846;3.224;2023-07-31T03:28:34;16.33;;;5.75;;
81306;SDS011;70775;50.846;3.224;2023-07-31T03:30:59;13.45;;;5.85;;
81306;SDS011;70775;50.846;3.224;2023-07-31T03:33:25;14.45;;;5.50;;
81306;SDS011;70775;50.846;3.224;2023-07-31T03:35:51;13.68;;;5.97;;
81306;SDS011;70775;50.846;3.224;2023-07-31T03:38:18;18.10;;;6.15;;
81306;SDS011;70775;50.846;3.224;2023-07-31T03:40:44;13.95;;;4.60;;
81306;SDS011;70775;50.846;3.224;2023-07-31T03:43:11;10.23;;;4.85;;
81306;SDS011;70775;50.846;3.224;2023-07-31T03:45:38;11.93;;;4.82;;
81306;SDS011;70775;50.846;3.224;2023-07-31T03:48:04;14.32;;;4.95;;
81306;SDS011;70775;50.846;3.224;2023-07-31T03:50:30;9.88;;;4.55;;
81306;SDS011;70775;50.846;3.224;2023-07-31T03:52:56;8.40;;;3.83;;
81306;SDS011;70775;50.846;3.224;2023-07-31T03:55:21;13.27;;;4.57;;
81306;SDS011;70775;50.846;3.224;2023-07-31T03:57:47;10.13;;;4.50;;
81306;SDS011;70775;50.846;3.224;2023-07-31T04:00:15;12.13;;;4.43;;
81306;SDS011;70775;50.846;3.224;2023-07-31T04:02:40;10.65;;;4.28;;
81306;SDS011;70775;50.846;3.224;2023-07-31T04:05:07;12.57;;;4.10;;
81306;SDS011;70775;50.846;3.224;2023-07-31T04:07:34;9.65;;;3.60;;
81306;SDS011;70775;50.846;3.224;2023-07-31T04:10:00;8.20;;;3.88;;
81306;SDS011;70775;50.846;3.224;2023-07-31T04:12:26;9.27;;;4.68;;
81306;SDS011;70775;50.846;3.224;2023-07-31T04:14:51;8.70;;;4.57;;
81306;SDS011;70775;50.846;3.224;2023-07-31T04:17:17;8.05;;;3.63;;
81306;SDS011;70775;50.846;3.224;2023-07-31T04:19:44;12.02;;;4.57;;
81306;SDS011;70775;50.846;3.224;2023-07-31T04:22:10;11.35;;;5.13;;
81306;SDS011;70775;50.846;3.224;2023-07-31T04:24:35;8.00;;;4.13;;
81306;SDS011;70775;50.846;3.224;2023-07-31T04:27:01;8.75;;;4.38;;
81306;SDS011;70775;50.846;3.224;2023-07-31T04:29:26;16.35;;;5.18;;
81306;SDS011;70775;50.846;3.224;2023-07-31T04:31:52;10.07;;;4.43;;
81306;SDS011;70775;50.846;3.224;2023-07-31T04:34:18;9.35;;;4.75;;
81306;SDS011;70775;50.846;3.224;2023-07-31T04:36:44;10.27;;;4.43;;
81306;SDS011;70775;50.846;3.224;2023-07-31T04:39:10;10.63;;;4.70;;
81306;SDS011;70775;50.846;3.224;2023-07-31T04:41:35;8.02;;;4.00;;
81306;SDS011;70775;50.846;3.224;2023-07-31T04:44:01;12.15;;;5.25;;
81306;SDS011;70775;50.846;3.224;2023-07-31T04:46:28;9.70;;;4.07;;
81306;SDS011;70775;50.846;3.224;2023-07-31T04:48:54;10.73;;;4.95;;
81306;SDS011;70775;50.846;3.224;2023-07-31T04:51:22;7.95;;;3.80;;
81306;SDS011;70775;50.846;3.224;2023-07-31T04:53:48;10.45;;;4.93;;
81306;SDS011;70775;50.846;3.224;2023-07-31T04:56:14;9.27;;;4.50;;
81306;SDS011;70775;50.846;3.224;2023-07-31T04:58:40;11.20;;;4.90;;
81306;SDS011;70775;50.846;3.224;2023-07-31T05:01:07;12.70;;;4.95;;
81306;SDS011;70775;50.846;3.224;2023-07-31T05:03:33;7.43;;;3.60;;
81306;SDS011;70775;50.846;3.224;2023-07-31T05:05:58;8.63;;;4.45;;
81306;SDS011;70775;50.846;3.224;2023-07-31T05:08:24;9.38;;;4.70;;
81306;SDS011;70775;50.846;3.224;2023-07-31T05:10:50;9.07;;;3.95;;
81306;SDS011;70775;50.846;3.224;2023-07-31T05:13:15;7.03;;;3.05;;
81306;SDS011;70775;50.846;3.224;2023-07-31T05:15:41;7.68;;;4.18;;
81306;SDS011;70775;50.846;3.224;2023-07-31T05:18:07;7.60;;;3.47;;
81306;SDS011;70775;50.846;3.224;2023-07-31T05:20:32;8.90;;;3.85;;
81306;SDS011;70775;50.846;3.224;2023-07-31T05:22:59;8.63;;;3.72;;
81306;SDS011;70775;50.846;3.224;2023-07-31T05:25:25;11.90;;;4.55;;
81306;SDS011;70775;50.846;3.224;2023-07-31T05:27:51;8.00;;;3.70;;
81306;SDS011;70775;50.846;3.224;2023-07-31T05:30:17;10.45;;;3.63;;
81306;SDS011;70775;50.846;3.224;2023-07-31T05:32:42;8.93;;;4.10;;
81306;SDS011;70775;50.846;3.224;2023-07-31T05:35:08;10.43;;;4.32;;
81306;SDS011;70775;50.846;3.224;2023-07-31T05:37:34;11.65;;;4.65;;
81306;SDS011;70775;50.846;3.224;2023-07-31T05:40:00;10.23;;;4.22;;
81306;SDS011;70775;50.846;3.224;2023-07-31T05:42:26;7.55;;;3.40;;
81306;SDS011;70775;50.846;3.224;2023-07-31T05:44:52;9.85;;;4.57;;
81306;SDS011;70775;50.846;3.224;2023-07-31T05:47:17;8.80;;;3.72;;
81306;SDS011;70775;50.846;3.224;2023-07-31T05:49:43;8.35;;;3.38;;
81306;SDS011;70775;50.846;3.224;2023-07-31T05:52:09;8.05;;;3.60;;
81306;SDS011;70775;50.846;3.224;2023-07-31T05:54:35;12.82;;;4.95;;
81306;SDS011;70775;50.846;3.224;2023-07-31T05:57:00;11.57;;;4.07;;
81306;SDS011;70775;50.846;3.224;2023-07-31T05:59:26;9.60;;;4.05;;
81306;SDS011;70775;50.846;3.224;2023-07-31T06:01:52;7.10;;;3.10;;
81306;SDS011;70775;50.846;3.224;2023-07-31T06:04:18;9.02;;;3.97;;
81306;SDS011;70775;50.846;3.224;2023-07-31T06:06:44;9.82;;;3.90;;
81306;SDS011;70775;50.846;3.224;2023-07-31T06:09:09;9.20;;;3.70;;
81306;SDS011;70775;50.846;3.224;2023-07-31T06:11:36;6.85;;;3.95;;
81306;SDS011;70775;50.846;3.224;2023-07-31T06:14:02;8.82;;;3.63;;
81306;SDS011;70775;50.846;3.224;2023-07-31T06:16:28;7.97;;;3.75;;
81306;SDS011;70775;50.846;3.224;2023-07-31T06:18:53;10.23;;;4.80;;
81306;SDS011;70775;50.846;3.224;2023-07-31T06:21:19;8.32;;;3.40;;
81306;SDS011;70775;50.846;3.224;2023-07-31T06:23:44;8.00;;;4.03;;
81306;SDS011;70775;50.846;3.224;2023-07-31T06:26:10;9.68;;;4.18;;
81306;SDS011;70775;50.846;3.224;2023-07-31T06:28:36;9.07;;;4.05;;
81306;SDS011;70775;50.846;3.224;2023-07-31T06:31:01;5.90;;;2.65;;
81306;SDS011;70775;50.846;3.224;2023-07-31T06:33:27;8.75;;;3.90;;
81306;SDS011;70775;50.846;3.224;2023-07-31T06:35:53;10.05;;;4.28;;
81306;SDS011;70775;50.846;3.224;2023-07-31T06:38:22;7.75;;;3.42;;
81306;SDS011;70775;50.846;3.224;2023-07-31T06:40:49;10.77;;;2.88;;
81306;SDS011;70775;50.846;3.224;2023-07-31T06:43:15;9.82;;;4.45;;
81306;SDS011;70775;50.846;3.224;2023-07-31T06:45:41;7.32;;;3.00;;
81306;SDS011;70775;50.846;3.224;2023-07-31T06:48:06;6.80;;;3.15;;
81306;SDS011;70775;50.846;3.224;2023-07-31T06:50:32;8.27;;;4.05;;
81306;SDS011;70775;50.846;3.224;2023-07-31T06:52:59;7.72;;;3.70;;
81306;SDS011;70775;50.846;3.224;2023-07-31T06:55:25;5.45;;;2.97;;
81306;SDS011;70775;50.846;3.224;2023-07-31T06:57:52;8.90;;;3.55;;
81306;SDS011;70775;50.846;3.224;2023-07-31T07:00:19;9.93;;;3.40;;
81306;SDS011;70775;50.846;3.224;2023-07-31T07:02:45;9.45;;;3.25;;
81306;SDS011;70775;50.846;3.224;2023-07-31T07:05:14;6.25;;;3.22;;
81306;SDS011;70775;50.846;3.224;2023-07-31T07:07:42;7.07;;;3.15;;
81306;SDS011;70775;50.846;3.224;2023-07-31T07:10:08;7.25;;;3.22;;
81306;SDS011;70775;50.846;3.224;2023-07-31T07:12:34;7.60;;;3.45;;
81306;SDS011;70775;50.846;3.224;2023-07-31T07:15:00;8.80;;;3.25;;
81306;SDS011;70775;50.846;3.224;2023-07-31T07:17:27;5.88;;;2.65;;
81306;SDS011;70775;50.846;3.224;2023-07-31T07:19:57;6.28;;;2.97;;
81306;SDS011;70775;50.846;3.224;2023-07-31T07:22:23;4.75;;;2.97;;
81306;SDS011;70775;50.846;3.224;2023-07-31T07:24:50;9.05;;;3.58;;
81306;SDS011;70775;50.846;3.224;2023-07-31T07:27:16;5.22;;;2.92;;
81306;SDS011;70775;50.846;3.224;2023-07-31T07:29:42;8.73;;;2.53;;
81306;SDS011;70775;50.846;3.224;2023-07-31T07:32:08;4.72;;;2.92;;
81306;SDS011;70775;50.846;3.224;2023-07-31T07:34:33;6.07;;;3.03;;
81306;SDS011;70775;50.846;3.224;2023-07-31T07:36:59;5.38;;;2.58;;
81306;SDS011;70775;50.846;3.224;2023-07-31T07:39:24;5.15;;;2.40;;
81306;SDS011;70775;50.846;3.224;2023-07-31T07:41:50;6.22;;;3.30;;
81306;SDS011;70775;50.846;3.224;2023-07-31T07:44:18;8.48;;;3.38;;
81306;SDS011;70775;50.846;3.224;2023-07-31T07:46:43;6.65;;;3.40;;
81306;SDS011;70775;50.846;3.224;2023-07-31T07:49:09;5.50;;;2.78;;
81306;SDS011;70775;50.846;3.224;2023-07-31T07:51:35;8.13;;;3.10;;
81306;SDS011;70775;50.846;3.224;2023-07-31T07:54:00;5.85;;;2.60;;
81306;SDS011;70775;50.846;3.224;2023-07-31T07:56:27;6.25;;;2.78;;
81306;SDS011;70775;50.846;3.224;2023-07-31T07:58:53;6.35;;;3.08;;
81306;SDS011;70775;50.846;3.224;2023-07-31T08:01:19;6.80;;;2.70;;
81306;SDS011;70775;50.846;3.224;2023-07-31T08:03:46;5.07;;;2.72;;
81306;SDS011;70775;50.846;3.224;2023-07-31T08:06:12;6.10;;;3.20;;
81306;SDS011;70775;50.846;3.224;2023-07-31T08:08:39;4.35;;;2.67;;
81306;SDS011;70775;50.846;3.224;2023-07-31T08:11:04;5.70;;;2.95;;
81306;SDS011;70775;50.846;3.224;2023-07-31T08:13:30;5.72;;;3.42;;
81306;SDS011;70775;50.846;3.224;2023-07-31T08:15:56;5.93;;;3.88;;
81306;SDS011;70775;50.846;3.224;2023-07-31T08:18:21;8.77;;;4.07;;
81306;SDS011;70775;50.846;3.224;2023-07-31T08:20:47;7.68;;;3.58;;
81306;SDS011;70775;50.846;3.224;2023-07-31T08:23:13;7.22;;;3.25;;
81306;SDS011;70775;50.846;3.224;2023-07-31T08:25:39;6.00;;;2.85;;
81306;SDS011;70775;50.846;3.224;2023-07-31T08:28:04;6.20;;;3.58;;
81306;SDS011;70775;50.846;3.224;2023-07-31T08:30:31;6.22;;;3.75;;
81306;SDS011;70775;50.846;3.224;2023-07-31T08:32:58;8.07;;;4.40;;
81306;SDS011;70775;50.846;3.224;2023-07-31T08:35:24;6.15;;;3.78;;
81306;SDS011;70775;50.846;3.224;2023-07-31T08:37:50;7.57;;;4.20;;
81306;SDS011;70775;50.846;3.224;2023-07-31T08:40:16;6.95;;;3.60;;
81306;SDS011;70775;50.846;3.224;2023-07-31T08:42:47;9.18;;;4.47;;
81306;SDS011;70775;50.846;3.224;2023-07-31T08:45:14;6.97;;;4.00;;
81306;SDS011;70775;50.846;3.224;2023-07-31T08:47:45;10.25;;;4.65;;
81306;SDS011;70775;50.846;3.224;2023-07-31T08:50:16;8.45;;;4.50;;
81306;SDS011;70775;50.846;3.224;2023-07-31T08:52:42;10.85;;;5.05;;
81306;SDS011;70775;50.846;3.224;2023-07-31T08:55:08;9.23;;;4.75;;
81306;SDS011;70775;50.846;3.224;2023-07-31T08:57:35;11.18;;;4.97;;
81306;SDS011;70775;50.846;3.224;2023-07-31T09:00:05;11.35;;;5.45;;
81306;SDS011;70775;50.846;3.224;2023-07-31T09:02:45;9.90;;;4.18;;
81306;SDS011;70775;50.846;3.224;2023-07-31T09:05:17;8.88;;;4.78;;
81306;SDS011;70775;50.846;3.224;2023-07-31T09:07:45;8.38;;;5.95;;
81306;SDS011;70775;50.846;3.224;2023-07-31T09:10:12;11.70;;;5.35;;
81306;SDS011;70775;50.846;3.224;2023-07-31T09:12:38;8.90;;;5.28;;
81306;SDS011;70775;50.846;3.224;2023-07-31T09:15:04;7.60;;;4.60;;
81306;SDS011;70775;50.846;3.224;2023-07-31T09:17:31;10.25;;;5.68;;
81306;SDS011;70775;50.846;3.224;2023-07-31T09:20:12;6.72;;;3.38;;
81306;SDS011;70775;50.846;3.224;2023-07-31T09:22:46;8.02;;;4.45;;
81306;SDS011;70775;50.846;3.224;2023-07-31T09:25:23;7.07;;;4.05;;
81306;SDS011;70775;50.846;3.224;2023-07-31T09:27:54;8.13;;;5.05;;
81306;SDS011;70775;50.846;3.224;2023-07-31T09:30:20;7.88;;;3.95;;
81306;SDS011;70775;50.846;3.224;2023-07-31T09:32:47;7.90;;;4.78;;
81306;SDS011;70775;50.846;3.224;2023-07-31T09:35:21;7.20;;;4.20;;
81306;SDS011;70775;50.846;3.224;2023-07-31T09:37:58;7.97;;;4.10;;
81306;SDS011;70775;50.846;3.224;2023-07-31T09:40:35;6.50;;;3.65;;
81306;SDS011;70775;50.846;3.224;2023-07-31T09:43:02;8.05;;;3.33;;
81306;SDS011;70775;50.846;3.224;2023-07-31T09:45:30;6.03;;;3.70;;
81306;SDS011;70775;50.846;3.224;2023-07-31T09:47:59;6.93;;;3.75;;
81306;SDS011;70775;50.846;3.224;2023-07-31T09:50:25;7.30;;;3.92;;
81306;SDS011;70775;50.846;3.224;2023-07-31T09:52:51;7.30;;;3.75;;
81306;SDS011;70775;50.846;3.224;2023-07-31T09:55:17;9.55;;;4.53;;
81306;SDS011;70775;50.846;3.224;2023-07-31T09:57:45;9.48;;;4.05;;
81306;SDS011;70775;50.846;3.224;2023-07-31T10:00:12;7.78;;;4.40;;
81306;SDS011;70775;50.846;3.224;2023-07-31T10:02:40;7.70;;;3.40;;
81306;SDS011;70775;50.846;3.224;2023-07-31T10:05:06;7.85;;;4.70;;
81306;SDS011;70775;50.846;3.224;2023-07-31T10:07:37;7.18;;;3.75;;
81306;SDS011;70775;50.846;3.224;2023-07-31T10:10:04;7.63;;;4.13;;
81306;SDS011;70775;50.846;3.224;2023-07-31T10:12:32;9.10;;;4.38;;
81306;SDS011;70775;50.846;3.224;2023-07-31T10:14:59;7.85;;;4.65;;
81306;SDS011;70775;50.846;3.224;2023-07-31T10:17:26;9.32;;;4.40;;
81306;SDS011;70775;50.846;3.224;2023-07-31T10:19:53;7.30;;;3.80;;
81306;SDS011;70775;50.846;3.224;2023-07-31T10:22:19;10.38;;;4.50;;
81306;SDS011;70775;50.846;3.224;2023-07-31T10:24:46;10.07;;;4.65;;
81306;SDS011;70775;50.846;3.224;2023-07-31T10:27:13;7.28;;;3.83;;
81306;SDS011;70775;50.846;3.224;2023-07-31T10:29:39;9.40;;;3.88;;
81306;SDS011;70775;50.846;3.224;2023-07-31T10:32:09;8.68;;;3.85;;
81306;SDS011;70775;50.846;3.224;2023-07-31T10:34:37;9.23;;;3.97;;
81306;SDS011;70775;50.846;3.224;2023-07-31T10:40:05;8.07;;;4.00;;
81306;SDS011;70775;50.846;3.224;2023-07-31T10:42:38;12.52;;;4.53;;
81306;SDS011;70775;50.846;3.224;2023-07-31T10:45:12;4.80;;;3.25;;
81306;SDS011;70775;50.846;3.224;2023-07-31T10:47:44;7.28;;;4.15;;
81306;SDS011;70775;50.846;3.224;2023-07-31T10:50:19;7.65;;;3.83;;
81306;SDS011;70775;50.846;3.224;2023-07-31T10:52:47;10.30;;;3.97;;
81306;SDS011;70775;50.846;3.224;2023-07-31T10:55:59;7.15;;;4.40;;
81306;SDS011;70775;50.846;3.224;2023-07-31T10:58:10;9.38;;;4.13;;
81306;SDS011;70775;50.846;3.224;2023-07-31T11:00:37;7.53;;;4.03;;
81306;SDS011;70775;50.846;3.224;2023-07-31T11:03:05;8.27;;;4.63;;
81306;SDS011;70775;50.846;3.224;2023-07-31T11:06:03;7.10;;;4.18;;
81306;SDS011;70775;50.846;3.224;2023-07-31T11:08:33;7.32;;;4.10;;
81306;SDS011;70775;50.846;3.224;2023-07-31T11:13:42;8.70;;;4.78;;
81306;SDS011;70775;50.846;3.224;2023-07-31T11:16:14;7.88;;;4.07;;
81306;SDS011;70775;50.846;3.224;2023-07-31T11:18:41;6.30;;;3.47;;
81306;SDS011;70775;50.846;3.224;2023-07-31T11:21:11;8.85;;;4.15;;
81306;SDS011;70775;50.846;3.224;2023-07-31T11:23:37;8.75;;;4.40;;
81306;SDS011;70775;50.846;3.224;2023-07-31T11:26:04;5.95;;;3.85;;
81306;SDS011;70775;50.846;3.224;2023-07-31T11:28:32;8.50;;;3.83;;
81306;SDS011;70775;50.846;3.224;2023-07-31T11:30:59;12.82;;;4.68;;
81306;SDS011;70775;50.846;3.224;2023-07-31T11:33:25;6.85;;;3.70;;
81306;SDS011;70775;50.846;3.224;2023-07-31T11:35:51;7.97;;;4.30;;
81306;SDS011;70775;50.846;3.224;2023-07-31T11:38:26;4.97;;;3.10;;
81306;SDS011;70775;50.846;3.224;2023-07-31T11:40:55;6.78;;;3.20;;
81306;SDS011;70775;50.846;3.224;2023-07-31T11:43:22;5.85;;;3.22;;
81306;SDS011;70775;50.846;3.224;2023-07-31T11:45:49;5.20;;;3.25;;
81306;SDS011;70775;50.846;3.224;2023-07-31T11:48:20;5.53;;;3.60;;
81306;SDS011;70775;50.846;3.224;2023-07-31T11:50:52;6.47;;;3.03;;
81306;SDS011;70775;50.846;3.224;2023-07-31T11:53:33;3.72;;;2.55;;
81306;SDS011;70775;50.846;3.224;2023-07-31T11:56:03;6.63;;;3.00;;
81306;SDS011;70775;50.846;3.224;2023-07-31T11:58:31;5.55;;;3.15;;
81306;SDS011;70775;50.846;3.224;2023-07-31T12:00:57;5.10;;;2.70;;
81306;SDS011;70775;50.846;3.224;2023-07-31T12:03:24;4.53;;;2.55;;
81306;SDS011;70775;50.846;3.224;2023-07-31T12:05:50;7.55;;;4.00;;
81306;SDS011;70775;50.846;3.224;2023-07-31T12:08:17;6.82;;;3.63;;
81306;SDS011;70775;50.846;3.224;2023-07-31T12:10:46;7.28;;;3.65;;
81306;SDS011;70775;50.846;3.224;2023-07-31T12:13:24;8.23;;;3.55;;
81306;SDS011;70775;50.846;3.224;2023-07-31T12:15:55;4.78;;;3.00;;
81306;SDS011;70775;50.846;3.224;2023-07-31T12:18:22;5.53;;;3.15;;
81306;SDS011;70775;50.846;3.224;2023-07-31T12:20:54;5.05;;;3.28;;
81306;SDS011;70775;50.846;3.224;2023-07-31T12:23:22;7.05;;;3.95;;
81306;SDS011;70775;50.846;3.224;2023-07-31T12:26:03;7.68;;;4.13;;
81306;SDS011;70775;50.846;3.224;2023-07-31T12:28:41;8.10;;;4.30;;
81306;SDS011;70775;50.846;3.224;2023-07-31T12:31:08;8.13;;;3.65;;
81306;SDS011;70775;50.846;3.224;2023-07-31T12:33:35;8.00;;;4.63;;
81306;SDS011;70775;50.846;3.224;2023-07-31T12:36:03;12.00;;;3.90;;
81306;SDS011;70775;50.846;3.224;2023-07-31T12:38:34;6.93;;;3.58;;
81306;SDS011;70775;50.846;3.224;2023-07-31T12:41:05;8.50;;;3.00;;
81306;SDS011;70775;50.846;3.224;2023-07-31T12:43:35;8.52;;;2.65;;
81306;SDS011;70775;50.846;3.224;2023-07-31T12:46:02;6.75;;;2.97;;
81306;SDS011;70775;50.846;3.224;2023-07-31T12:48:28;5.50;;;2.55;;
81306;SDS011;70775;50.846;3.224;2023-07-31T12:50:54;7.43;;;3.53;;
81306;SDS011;70775;50.846;3.224;2023-07-31T12:53:20;4.38;;;2.33;;
81306;SDS011;70775;50.846;3.224;2023-07-31T12:55:45;7.80;;;3.55;;
81306;SDS011;70775;50.846;3.224;2023-07-31T12:58:11;5.18;;;2.97;;
81306;SDS011;70775;50.846;3.224;2023-07-31T13:00:40;5.88;;;3.20;;
81306;SDS011;70775;50.846;3.224;2023-07-31T13:03:11;7.15;;;3.97;;
81306;SDS011;70775;50.846;3.224;2023-07-31T13:05:40;8.40;;;3.67;;
81306;SDS011;70775;50.846;3.224;2023-07-31T13:08:06;7.68;;;3.47;;
81306;SDS011;70775;50.846;3.224;2023-07-31T13:10:31;5.35;;;3.25;;
81306;SDS011;70775;50.846;3.224;2023-07-31T13:13:08;6.50;;;3.20;;
81306;SDS011;70775;50.846;3.224;2023-07-31T13:15:38;7.18;;;4.18;;
81306;SDS011;70775;50.846;3.224;2023-07-31T13:18:03;7.68;;;3.63;;
81306;SDS011;70775;50.846;3.224;2023-07-31T13:20:32;6.45;;;3.60;;
81306;SDS011;70775;50.846;3.224;2023-07-31T13:22:58;7.70;;;4.20;;
81306;SDS011;70775;50.846;3.224;2023-07-31T13:25:23;8.15;;;3.58;;
81306;SDS011;70775;50.846;3.224;2023-07-31T13:27:50;7.13;;;3.90;;
81306;SDS011;70775;50.846;3.224;2023-07-31T13:30:22;7.22;;;3.63;;
81306;SDS011;70775;50.846;3.224;2023-07-31T13:32:50;7.47;;;3.55;;
81306;SDS011;70775;50.846;3.224;2023-07-31T13:35:15;6.93;;;3.10;;
81306;SDS011;70775;50.846;3.224;2023-07-31T13:37:41;7.38;;;3.15;;
81306;SDS011;70775;50.846;3.224;2023-07-31T13:40:07;8.07;;;3.65;;
81306;SDS011;70775;50.846;3.224;2023-07-31T13:42:36;4.85;;;2.78;;
81306;SDS011;70775;50.846;3.224;2023-07-31T13:45:01;4.65;;;2.53;;
81306;SDS011;70775;50.846;3.224;2023-07-31T13:47:30;4.57;;;2.55;;
81306;SDS011;70775;50.846;3.224;2023-07-31T13:49:57;4.25;;;1.80;;
81306;SDS011;70775;50.846;3.224;2023-07-31T13:52:22;2.08;;;1.52;;
81306;SDS011;70775;50.846;3.224;2023-07-31T13:54:48;5.13;;;2.72;;
81306;SDS011;70775;50.846;3.224;2023-07-31T13:57:16;3.95;;;2.13;;
81306;SDS011;70775;50.846;3.224;2023-07-31T13:59:42;2.72;;;1.75;;
81306;SDS011;70775;50.846;3.224;2023-07-31T14:02:08;3.65;;;2.00;;
81306;SDS011;70775;50.846;3.224;2023-07-31T14:04:33;3.35;;;1.70;;
81306;SDS011;70775;50.846;3.224;2023-07-31T14:06:59;3.20;;;1.67;;
81306;SDS011;70775;50.846;3.224;2023-07-31T14:09:25;2.42;;;1.58;;
81306;SDS011;70775;50.846;3.224;2023-07-31T14:11:51;2.35;;;1.50;;
81306;SDS011;70775;50.846;3.224;2023-07-31T14:14:20;1.88;;;1.30;;
81306;SDS011;70775;50.846;3.224;2023-07-31T14:16:45;2.03;;;1.52;;
81306;SDS011;70775;50.846;3.224;2023-07-31T14:19:11;2.97;;;1.50;;
81306;SDS011;70775;50.846;3.224;2023-07-31T14:21:42;1.85;;;1.30;;
81306;SDS011;70775;50.846;3.224;2023-07-31T14:24:11;2.47;;;1.48;;
81306;SDS011;70775;50.846;3.224;2023-07-31T14:26:37;2.50;;;1.60;;
81306;SDS011;70775;50.846;3.224;2023-07-31T14:29:02;3.55;;;1.45;;
81306;SDS011;70775;50.846;3.224;2023-07-31T14:31:28;3.85;;;1.50;;
81306;SDS011;70775;50.846;3.224;2023-07-31T14:33:56;3.08;;;1.50;;
81306;SDS011;70775;50.846;3.224;2023-07-31T14:36:22;2.88;;;1.50;;
81306;SDS011;70775;50.846;3.224;2023-07-31T14:38:48;1.83;;;1.45;;
81306;SDS011;70775;50.846;3.224;2023-07-31T14:41:13;2.15;;;1.20;;
81306;SDS011;70775;50.846;3.224;2023-07-31T14:43:39;3.95;;;1.70;;
81306;SDS011;70775;50.846;3.224;2023-07-31T14:46:05;1.38;;;0.90;;
81306;SDS011;70775;50.846;3.224;2023-07-31T14:48:30;2.38;;;1.25;;
81306;SDS011;70775;50.846;3.224;2023-07-31T14:50:56;2.85;;;1.75;;
81306;SDS011;70775;50.846;3.224;2023-07-31T14:53:22;3.60;;;1.40;;